Nearby METAR Reports

 

KIAG - Niagara Falls, New York, USA
Distance from station: W 12mi, 20km
Updated: 05/24/2024 7:53am
Clear
Clear
 Wind from W
Wind: W 6 mph , 9 km/h
Temperature: 64°F , 18°C
Dew Point: 52°F , 11°C
Humidity: 64%
Barometer: 1012.5 hPa
Clouds: Clear
Visibility: 10 miles , 16 km
2024/05/24 11:53 KIAG 241153Z 27005KT 10SM CLR 18/11 A2990 RMK AO2 SLP122 T01780111 10178 20133 52013
KBUF - Buffalo/Cheektow, New York, USA
Distance from station: S 13mi, 21km
Updated: 05/24/2024 7:54am
Few Clouds
Few Clouds
 Wind from WSW
Wind: WSW 8 mph , 13 km/h
Temperature: 64°F , 18°C
Dew Point: 54°F , 12°C
Humidity: 68%
Barometer: 1012.9 hPa
Clouds: Few Clouds
Visibility: 10 miles , 16 km
Cloud details: Few Clouds 25000 ft
2024/05/24 11:54 KBUF 241154Z 24007KT 10SM FEW250 18/12 A2991 RMK AO2 SLP124 T01830117 10183 20133 53011 $
 
KROC - Rochester, New York, USA
Distance from station: E 51mi, 82km
Updated: 05/24/2024 7:54am
Few Clouds
Few Clouds
 Wind from WSW
Wind: WSW 7 mph , 11 km/h
Temperature: 63°F , 17°C
Dew Point: 52°F , 11°C
Humidity: 68%
Barometer: 1012.2 hPa
Clouds: Few Clouds
Visibility: 10 miles , 16 km
Cloud details: Few Clouds 25000 ft
2024/05/24 11:54 KROC 241154Z 24006KT 10SM FEW250 17/11 A2989 RMK AO2 SLP123 T01670106 10167 20122 53009
CYSN - St. Catharines A, Ontario, Canada
Distance from station: WNW 25mi, 40km
Updated: 05/24/2024 8:00am
Clear
Clear
 Wind from NW
Wind: NW 6 mph , 9 km/h
Temperature: 64°F , 18°C
Dew Point: 50°F , 10°C
Humidity: 60%
Barometer: 1012.5 hPa
Clouds: Clear
Visibility: 15 miles , 24 km
2024/05/24 12:00 CYSN 241200Z 32005KT 15SM SKC 18/10 A2990 RMK SLP127 DENSITY ALT 800FT
 
KOLE - Olean, New York, USA
Distance from station: SSE 63mi, 102km
Updated: 05/24/2024 8:15am
Clear
Clear
 Wind from calm
Wind: Calm
Temperature: 59°F , 15°C
Dew Point: 46°F , 8°C
Humidity: 63%
Barometer: 1014.2 hPa
Clouds: Clear
Visibility: 10 miles , 16 km
2024/05/24 12:15 KOLE 241215Z AUTO 00000KT 10SM CLR 15/08 A2995 RMK AO2
KJHW - Jamestown, New York, USA
Distance from station: SSW 74mi, 119km
Updated: 05/24/2024 7:56am
Clear
Clear
 Wind from calm
Wind: Calm
Temperature: 57°F , 14°C
Dew Point: 50°F , 10°C
Humidity: 77%
Barometer: 1014.2 hPa
Clouds: Clear
Visibility: 10 miles , 16 km
2024/05/24 11:56 KJHW 241156Z AUTO 00000KT 10SM CLR 14/10 A2995 RMK AO2 SLP143 T01440100 10144 20094 51005
 
CWWZ - Port Weller (mar, Ontario, Canada
Distance from station: WNW 28mi, 45km
Updated: 05/24/2024 8:00am

 Wind from WNW
Wind: WNW 6 mph , 9 km/h
Temperature: 64°F , 18°C
Dew Point: 54°F , 12°C
Humidity: 68%
2024/05/24 12:00 CWWZ 241200Z AUTO 30005KT 18/12 RMK AO1 SLP126 T01830124 53018
CWPC - Port Colborne(Au, Ontario, Canada
Distance from station: WSW 33mi, 53km
Updated: 05/24/2024 8:00am

 Wind from W
Wind: W 6 mph , 9 km/h
Temperature: 59°F , 15°C
Dew Point: 59°F , 15°C
Humidity: 100%
2024/05/24 12:00 CWPC 241200Z AUTO 26005KT 15/15 RMK AO1 SLP140 T01450147 53010
 
CXVN - Vineland (au8), Ontario, Canada
Distance from station: W 36mi, 58km
Updated: 05/24/2024 8:00am

 Wind from WNW
Wind: WNW 7 mph , 11 km/h
Temperature: 64°F , 18°C
Dew Point: 50°F , 10°C
Humidity: 60%
2024/05/24 12:00 CXVN 241200Z AUTO 30006KT 18/10 RMK AO1 SLP127 T01770095 53016
CYTZ - Toronto Il Vor, Ontario, Canada
Distance from station: NW 50mi, 81km
Updated: 05/24/2024 8:00am
Clear
Clear
 Wind from NW
Wind: NW 18 mph , 30 km/h, Gust: 25 mph , 41 km/h
Temperature: 63°F , 17°C
Dew Point: 43°F , 6°C
Humidity: 49%
Barometer: 1011.5 hPa
Clouds: Clear
Visibility: 9 miles , 14 km
2024/05/24 12:00 CYTZ 241200Z AUTO 32016G22KT 9SM CLR 17/06 A2987 RMK SLP118 DENSITY ALT 600FT
 
CXTO - Toronto City, Ontario, Canada
Distance from station: NW 52mi, 84km
Updated: 05/24/2024 8:00am

 
Temperature: 61°F , 16°C
Dew Point: 41°F , 5°C
Humidity: 48%
2024/05/24 12:00 CXTO 241200Z AUTO 16/05 RMK AO1 SLP118 T01600047 51011
KDKK - Dunkirk, New York, USA
Distance from station: SW 52mi, 84km
Updated: 05/24/2024 7:53am
Clear
Clear
 Wind from SSW
Wind: SSW 6 mph , 9 km/h
Temperature: 66°F , 19°C
Dew Point: 50°F , 10°C
Humidity: 56%
Barometer: 1013.2 hPa
Clouds: Clear
Visibility: 10 miles , 16 km
2024/05/24 11:53 KDKK 241153Z AUTO 21005KT 10SM CLR 19/10 A2992 RMK AO2 SLP128 T01940100 10194 20139 53007
 
CYOO - Oshawa, Ontario, Canada
Distance from station: N 56mi, 90km
Updated: 05/24/2024 8:00am
Clear
Clear
 Wind from WNW
Wind: WNW 10 mph , 17 km/h
Temperature: 61°F , 16°C
Dew Point: 39°F , 4°C
Humidity: 45%
Barometer: 1011.2 hPa
Clouds: Clear
Visibility: 9 miles , 14 km
2024/05/24 12:00 CYOO 241200Z AUTO 30009KT 9SM CLR 16/04 A2986 RMK SLP114 DENSITY ALT 700FT
CWWB - Burlington Piers, Ontario, Canada
Distance from station: WNW 56mi, 91km
Updated: 05/24/2024 8:00am

 Wind from SSW
Wind: SSW 2 mph , 4 km/h
Temperature: 63°F , 17°C
Dew Point: 48°F , 9°C
Humidity: 59%
2024/05/24 12:00 CWWB 241200Z AUTO 21002KT 17/09 RMK AO1 SLP125 T01690091 53016
 
CYYZ - Toronto/Pearson, Ontario, Canada
Distance from station: NW 60mi, 96km
Updated: 05/24/2024 8:00am
Few Clouds
Few Clouds
 Wind from NNW
Wind: NNW 13 mph , 20 km/h
Temperature: 61°F , 16°C
Dew Point: 41°F , 5°C
Humidity: 48%
Barometer: 1011.9 hPa
Clouds: Few Clouds
Visibility: 15 miles , 24 km
Cloud details: Few Clouds 25000 ft
2024/05/24 12:00 CYYZ 241200Z 34011KT 15SM FEW250 16/05 A2988 RMK CI1 CI TR SLP121 DENSITY ALT 900FT
CYKZ - Toronto Buttonvi, Ontario, Canada
Distance from station: NW 62mi, 99km
Updated: 01/03/2019 4:00am
NOT Current
Partly cloudy
Partly cloudy
 Wind from WSW
Wind: WSW 5 mph , 7 km/h
Temperature: 27°F , -3°C
Wind Chill: 21°F , -6°C
Dew Point: 23°F , -5°C
Humidity: 86%
Barometer: 1010.8 hPa
Clouds: Partly cloudy
Visibility: 15 miles , 24 km
Cloud details: Partly cloudy 4000 ft
2019/01/03 09:00 CYKZ 030900Z 25004KT 15SM SCT040 M03/M05 A2985 RMK SC3 LAST STFD OBS FAREWELL SLP118
 
CXHM - Hamilton Rbg Cs, Ontario, Canada
Distance from station: W 62mi, 100km
Updated: 05/24/2024 8:00am

 Wind from WNW
Wind: WNW 2 mph , 4 km/h
Temperature: 63°F , 17°C
Dew Point: 46°F , 8°C
Humidity: 56%
2024/05/24 12:00 CXHM 241200Z AUTO 29002KT 17/08 RMK AO1 SLP126 T01700075 52015
KDSV - Dansville, New York, USA
Distance from station: SE 62mi, 100km
Updated: 05/24/2024 7:54am
Clear
Clear
 Wind from SE
Wind: SE 8 mph , 13 km/h
Temperature: 61°F , 16°C
Dew Point: 46°F , 8°C
Humidity: 59%
Barometer: 1012.9 hPa
Clouds: Clear
Visibility: 10 miles , 16 km
2024/05/24 11:54 KDSV 241154Z AUTO 14007KT 10SM CLR 16/08 A2991 RMK AO2 SLP135 T01610083 10161 20117 50005
 
CYHM - Hamilton Airport, Ontario, Canada
Distance from station: W 63mi, 101km
Updated: 05/24/2024 8:00am
Few Clouds
Few Clouds
 Wind from W
Wind: W 6 mph , 9 km/h
Temperature: 59°F , 15°C
Dew Point: 52°F , 11°C
Humidity: 77%
Barometer: 1012.9 hPa
Clouds: Few Clouds
Visibility: 15 miles , 24 km
Cloud details: Few Clouds 23000 ft
2024/05/24 12:00 CYHM 241200Z 27005KT 15SM FEW230 15/11 A2991 RMK CI1 CI TR VIA CYXU SLP129 DENSITY ALT 1100FT
CWNC - Cobourg (mars), Ontario, Canada
Distance from station: NNE 63mi, 102km
Updated: 04/19/2024 7:00pm
NOT Current

 Wind from WSW
Wind: WSW 2 mph , 4 km/h
Temperature: 46°F , 8°C
Dew Point: 37°F , 3°C
Humidity: 71%
2024/04/19 23:00 CWNC 192300Z AUTO 24002KT 08/03 RMK AO1 SLP212 T00810033 56007